createdAt,value
2016-04-28T00:00:13.744Z,0
2016-04-28T00:01:13.747Z,0
2016-04-28T00:02:13.749Z,0
2016-04-28T00:03:13.704Z,0
2016-04-28T00:04:13.708Z,0
2016-04-28T00:05:13.680Z,0
2016-04-28T00:06:13.666Z,0
2016-04-28T00:07:13.637Z,0
2016-04-28T00:08:13.656Z,0
2016-04-28T00:09:13.596Z,0
2016-04-28T00:10:13.598Z,0
2016-04-28T00:11:14.304Z,0
2016-04-28T00:12:13.541Z,0
2016-04-28T00:13:13.529Z,0
2016-04-28T00:14:13.532Z,0
2016-04-28T00:15:13.362Z,0
2016-04-28T00:16:13.489Z,0
2016-04-28T00:17:13.477Z,0
2016-04-28T00:18:13.448Z,0
2016-04-28T00:19:13.451Z,0
2016-04-28T00:20:16.406Z,0
2016-04-28T00:21:13.394Z,0
2016-04-28T00:22:13.428Z,0
2016-04-28T00:23:13.400Z,0
2016-04-28T00:24:13.355Z,0
2016-04-28T00:25:13.326Z,0
2016-04-28T00:26:13.064Z,0
2016-04-28T00:27:13.301Z,0
2016-04-28T00:28:13.319Z,0
2016-04-28T00:29:13.274Z,0
2016-04-28T00:30:13.262Z,0
2016-04-28T00:31:13.249Z,0
2016-04-28T00:32:13.236Z,0
2016-04-28T00:33:13.191Z,0
2016-04-28T00:34:13.179Z,0
2016-04-28T00:35:13.166Z,0
2016-04-28T00:36:13.137Z,0
2016-04-28T00:37:13.140Z,0
2016-04-28T00:38:13.143Z,0
2016-04-28T00:39:13.099Z,0
2016-04-28T00:40:13.116Z,0
2016-04-28T00:41:15.744Z,0
2016-04-28T00:42:13.043Z,0
2016-04-28T00:43:13.047Z,0
2016-04-28T00:44:13.018Z,0
2016-04-28T00:45:13.005Z,0
2016-04-28T00:46:12.976Z,0
2016-04-28T00:47:12.948Z,0
2016-04-28T00:48:12.951Z,0
2016-04-28T00:49:12.937Z,0
2016-04-28T00:50:12.909Z,0
2016-04-28T00:51:12.896Z,0
2016-04-28T00:52:12.884Z,0
2016-04-28T00:53:12.730Z,0
2016-04-28T00:54:12.858Z,0
2016-04-28T00:55:12.829Z,0
2016-04-28T00:56:14.113Z,0
2016-04-28T00:57:12.803Z,0
2016-04-28T00:58:12.806Z,0
2016-04-28T00:59:12.761Z,0
2016-04-28T01:00:12.764Z,0
2016-04-28T01:01:12.720Z,0
2016-04-28T01:02:12.707Z,0
2016-04-28T01:03:12.725Z,0
2016-04-28T01:04:12.681Z,0
2016-04-28T01:05:12.669Z,0
2016-04-28T01:06:12.655Z,0
2016-04-28T01:07:12.627Z,0
2016-04-28T01:08:12.613Z,0
2016-04-28T01:09:12.601Z,0
2016-04-28T01:10:12.572Z,0
2016-04-28T01:11:14.934Z,0
2016-04-28T01:12:12.671Z,0
2016-04-28T01:13:12.549Z,0
2016-04-28T01:14:12.349Z,0
2016-04-28T01:15:12.507Z,0
2016-04-28T01:16:12.463Z,0
2016-04-28T01:17:12.466Z,0
2016-04-28T01:18:12.454Z,0
2016-04-28T01:19:12.456Z,0
2016-04-28T01:20:12.396Z,0
2016-04-28T01:21:12.414Z,0
2016-04-28T01:22:12.354Z,0
2016-04-28T01:23:12.342Z,0
2016-04-28T01:24:12.344Z,0
2016-04-28T01:25:12.347Z,0
2016-04-28T01:26:12.350Z,0
2016-04-28T01:27:12.306Z,0
2016-04-28T01:28:12.292Z,0
2016-04-28T01:29:12.264Z,0
2016-04-28T01:30:12.236Z,0
2016-04-28T01:31:12.254Z,0
2016-04-28T01:32:12.210Z,0
2016-04-28T01:33:12.196Z,0
2016-04-28T01:34:12.168Z,0
2016-04-28T01:35:12.155Z,0
2016-04-28T01:36:12.127Z,0
2016-04-28T01:37:12.113Z,0
2016-04-28T01:38:12.102Z,0
2016-04-28T01:39:12.088Z,0
2016-04-28T01:40:12.075Z,0
2016-04-28T01:41:12.765Z,0
2016-04-28T01:42:12.221Z,0
2016-04-28T01:43:12.021Z,0
2016-04-28T01:44:12.008Z,0
2016-04-28T01:45:12.010Z,0
2016-04-28T01:46:11.965Z,0
2016-04-28T01:47:11.954Z,0
2016-04-28T01:48:11.940Z,0
2016-04-28T01:49:11.927Z,0
2016-04-28T01:50:11.914Z,0
2016-04-28T01:51:11.887Z,0
2016-04-28T01:52:11.873Z,0
2016-04-28T01:53:11.859Z,0
2016-04-28T01:54:11.832Z,0
2016-04-28T01:55:11.834Z,0
2016-04-28T01:56:12.056Z,0
2016-04-28T01:57:11.995Z,0
2016-04-28T01:58:11.764Z,0
2016-04-28T01:59:11.766Z,0
2016-04-28T02:00:11.723Z,0
2016-04-28T02:01:11.741Z,0
2016-04-28T02:02:11.696Z,0
2016-04-28T02:03:11.684Z,0
2016-04-28T02:04:11.671Z,0
2016-04-28T02:05:11.658Z,0
2016-04-28T02:06:11.644Z,0
2016-04-28T02:07:11.616Z,0
2016-04-28T02:08:11.588Z,0
2016-04-28T02:09:11.606Z,0
2016-04-28T02:10:11.577Z,0
2016-04-28T02:11:11.877Z,0
2016-04-28T02:12:11.552Z,0
2016-04-28T02:13:11.507Z,0
2016-04-28T02:14:11.479Z,0
2016-04-28T02:15:11.465Z,0
2016-04-28T02:16:11.485Z,0
2016-04-28T02:17:11.456Z,0
2016-04-28T02:18:11.412Z,0
2016-04-28T02:19:11.415Z,0
2016-04-28T02:20:11.385Z,0
2016-04-28T02:21:11.420Z,0
2016-04-28T02:22:11.031Z,0
2016-04-28T02:23:11.368Z,0
2016-04-28T02:24:11.168Z,0
2016-04-28T02:25:11.296Z,0
2016-04-28T02:26:12.610Z,0
2016-04-28T02:27:13.395Z,0
2016-04-28T02:28:11.256Z,0
2016-04-28T02:29:11.229Z,0
2016-04-28T02:30:11.231Z,0
2016-04-28T02:31:11.203Z,0
2016-04-28T02:32:11.189Z,0
2016-04-28T02:33:11.176Z,0
2016-04-28T02:34:11.164Z,0
2016-04-28T02:35:11.134Z,0
2016-04-28T02:36:11.123Z,0
2016-04-28T02:37:11.140Z,0
2016-04-28T02:38:11.081Z,0
2016-04-28T02:39:11.036Z,0
2016-04-28T02:40:11.038Z,0
2016-04-28T02:41:11.651Z,0
2016-04-28T02:42:11.701Z,0
2016-04-28T02:43:11.016Z,0
2016-04-28T02:44:10.955Z,0
2016-04-28T02:45:10.975Z,0
2016-04-28T02:46:10.946Z,0
2016-04-28T02:47:10.917Z,0
2016-04-28T02:48:10.919Z,0
2016-04-28T02:49:10.908Z,0
2016-04-28T02:50:10.879Z,0
2016-04-28T02:51:10.849Z,0
2016-04-28T02:52:10.852Z,0
2016-04-28T02:53:10.839Z,0
2016-04-28T02:54:10.827Z,0
2016-04-28T02:55:10.798Z,0
2016-04-28T02:56:12.113Z,0
2016-04-28T02:57:13.726Z,0
2016-04-28T02:58:10.743Z,0
2016-04-28T02:59:10.731Z,0
2016-04-28T03:00:10.717Z,0
2016-04-28T03:01:10.690Z,0
2016-04-28T03:02:10.520Z,0
2016-04-28T03:03:10.507Z,0
2016-04-28T03:04:10.650Z,0
2016-04-28T03:05:10.622Z,0
2016-04-28T03:06:10.593Z,0
2016-04-28T03:07:10.580Z,0
2016-04-28T03:08:10.583Z,0
2016-04-28T03:09:10.383Z,0
2016-04-28T03:10:10.526Z,0
2016-04-28T03:11:12.638Z,0
2016-04-28T03:12:10.734Z,0
2016-04-28T03:13:10.487Z,0
2016-04-28T03:14:10.474Z,0
2016-04-28T03:15:10.477Z,0
2016-04-28T03:16:10.464Z,0
2016-04-28T03:17:10.388Z,0
2016-04-28T03:18:10.375Z,0
2016-04-28T03:19:10.363Z,0
2016-04-28T03:20:10.380Z,0
2016-04-28T03:21:10.321Z,0
2016-04-28T03:22:10.324Z,0
2016-04-28T03:23:10.296Z,0
2016-04-28T03:24:10.282Z,0
2016-04-28T03:25:10.269Z,0
2016-04-28T03:26:10.085Z,0
2016-04-28T03:27:12.415Z,0
2016-04-28T03:28:10.215Z,0
2016-04-28T03:29:10.201Z,0
2016-04-28T03:30:10.174Z,0
2016-04-28T03:31:10.160Z,0
2016-04-28T03:32:10.148Z,0
2016-04-28T03:33:10.134Z,0
2016-04-28T03:34:10.122Z,0
2016-04-28T03:35:10.093Z,0
2016-04-28T03:36:10.080Z,0
2016-04-28T03:37:10.067Z,0
2016-04-28T03:38:09.883Z,0
2016-04-28T03:39:10.026Z,0
2016-04-28T03:40:09.997Z,0
2016-04-28T03:41:09.780Z,0
2016-04-28T03:42:11.222Z,0
2016-04-28T03:43:09.958Z,0
2016-04-28T03:44:09.945Z,0
2016-04-28T03:45:09.916Z,0
2016-04-28T03:46:09.764Z,0
2016-04-28T03:47:09.875Z,0
2016-04-28T03:48:09.877Z,0
2016-04-28T03:49:09.866Z,0
2016-04-28T03:50:09.883Z,0
2016-04-28T03:51:09.839Z,0
2016-04-28T03:52:09.826Z,0
2016-04-28T03:53:09.766Z,0
2016-04-28T03:54:09.754Z,0
2016-04-28T03:55:09.756Z,0
2016-04-28T03:56:09.681Z,0
2016-04-28T03:57:10.402Z,0
2016-04-28T03:58:09.702Z,0
2016-04-28T03:59:09.689Z,0
2016-04-28T04:00:09.676Z,0
2016-04-28T04:01:09.648Z,0
2016-04-28T04:02:09.635Z,0
2016-04-28T04:03:09.684Z,0
2016-04-28T04:04:09.593Z,0
2016-04-28T04:05:09.596Z,0
2016-04-28T04:06:09.551Z,0
2016-04-28T04:07:09.539Z,0
2016-04-28T04:08:09.541Z,0
2016-04-28T04:09:09.512Z,0
2016-04-28T04:10:09.484Z,0
2016-04-28T04:11:09.847Z,0
2016-04-28T04:12:09.286Z,0
2016-04-28T04:13:09.445Z,0
2016-04-28T04:14:09.433Z,0
2016-04-28T04:15:09.419Z,0
2016-04-28T04:16:09.375Z,0
2016-04-28T04:17:09.222Z,0
2016-04-28T04:18:09.366Z,0
2016-04-28T04:19:09.352Z,0
2016-04-28T04:20:09.307Z,0
2016-04-28T04:21:09.295Z,0
2016-04-28T04:22:09.141Z,0
2016-04-28T04:23:09.285Z,0
2016-04-28T04:24:09.256Z,0
2016-04-28T04:25:09.244Z,0
2016-04-28T04:26:09.715Z,0
2016-04-28T04:27:09.265Z,0
2016-04-28T04:28:09.173Z,0
2016-04-28T04:29:09.160Z,0
2016-04-28T04:30:09.132Z,0
2016-04-28T04:31:09.150Z,0
2016-04-28T04:32:09.121Z,0
2016-04-28T04:33:09.077Z,0
2016-04-28T04:34:09.095Z,0
2016-04-28T04:35:09.051Z,0
2016-04-28T04:36:09.053Z,0
2016-04-28T04:37:09.057Z,0
2016-04-28T04:38:08.981Z,0
2016-04-28T04:39:09.000Z,0
2016-04-28T04:40:08.987Z,0
2016-04-28T04:41:08.880Z,0
2016-04-28T04:42:10.805Z,0
2016-04-28T04:43:08.932Z,0
2016-04-28T04:44:08.919Z,0
2016-04-28T04:45:08.891Z,0
2016-04-28T04:46:08.862Z,0
2016-04-28T04:47:08.849Z,0
2016-04-28T04:48:08.867Z,0
2016-04-28T04:49:08.683Z,0
2016-04-28T04:50:08.810Z,0
2016-04-28T04:51:08.782Z,0
2016-04-28T04:52:08.769Z,0
2016-04-28T04:53:08.585Z,0
2016-04-28T04:54:08.743Z,0
2016-04-28T04:55:08.699Z,0
2016-04-28T04:56:08.936Z,0
2016-04-28T04:57:09.079Z,0
2016-04-28T04:58:08.660Z,0
2016-04-28T04:59:08.662Z,0
2016-04-28T05:00:08.666Z,0
2016-04-28T05:01:08.699Z,0
2016-04-28T05:02:08.609Z,0
2016-04-28T05:03:08.579Z,0
2016-04-28T05:04:08.551Z,0
2016-04-28T05:05:08.523Z,0
2016-04-28T05:06:08.509Z,0
2016-04-28T05:07:08.528Z,0
2016-04-28T05:08:08.484Z,0
2016-04-28T05:09:08.456Z,0
2016-04-28T05:10:08.458Z,0
2016-04-28T05:11:08.522Z,0
2016-04-28T05:12:09.213Z,0
2016-04-28T05:13:08.389Z,0
2016-04-28T05:14:08.406Z,0
2016-04-28T05:15:08.361Z,0
2016-04-28T05:16:08.350Z,0
2016-04-28T05:17:08.320Z,0
2016-04-28T05:18:08.308Z,0
2016-04-28T05:19:08.294Z,0
2016-04-28T05:20:08.283Z,0
2016-04-28T05:21:08.284Z,0
2016-04-28T05:22:08.256Z,0
2016-04-28T05:23:08.227Z,0
2016-04-28T05:24:08.213Z,0
2016-04-28T05:25:08.185Z,0
2016-04-28T05:26:08.174Z,0
2016-04-28T05:27:11.316Z,0
2016-04-28T05:28:08.146Z,0
2016-04-28T05:29:08.135Z,0
2016-04-28T05:30:08.121Z,0
2016-04-28T05:31:08.093Z,0
2016-04-28T05:32:08.110Z,0
2016-04-28T05:33:08.052Z,0
2016-04-28T05:34:08.053Z,0
2016-04-28T05:35:08.041Z,0
2016-04-28T05:36:08.012Z,0
2016-04-28T05:37:07.983Z,0
2016-04-28T05:38:07.970Z,0
2016-04-28T05:39:07.959Z,0
2016-04-28T05:40:07.961Z,0
2016-04-28T05:41:07.978Z,0
2016-04-28T05:42:07.762Z,0
2016-04-28T05:43:07.890Z,0
2016-04-28T05:44:07.893Z,0
2016-04-28T05:45:07.850Z,5
2016-04-28T05:46:07.820Z,5
2016-04-28T05:47:07.025Z,5
2016-04-28T05:48:07.795Z,5
2016-04-28T05:49:07.766Z,5
2016-04-28T05:50:07.769Z,5
2016-04-28T05:51:07.740Z,5
2016-04-28T05:52:07.728Z,5
2016-04-28T05:53:07.714Z,5
2016-04-28T05:54:07.686Z,10
2016-04-28T05:55:07.688Z,10
2016-04-28T05:56:07.644Z,10
2016-04-28T05:57:07.725Z,10
2016-04-28T05:58:07.618Z,10
2016-04-28T05:59:07.605Z,10
2016-04-28T06:00:07.593Z,15
2016-04-28T06:01:07.585Z,15
2016-04-28T06:02:07.598Z,15
2016-04-28T06:03:07.625Z,15
2016-04-28T06:04:07.653Z,15
2016-04-28T06:05:07.665Z,15
2016-04-28T06:06:07.689Z,15
2016-04-28T06:07:07.706Z,20
2016-04-28T06:08:07.677Z,25
2016-04-28T06:09:07.679Z,25
2016-04-28T06:10:07.680Z,25
2016-04-28T06:11:07.681Z,25
2016-04-28T06:12:07.344Z,25
2016-04-28T06:13:07.649Z,25
2016-04-28T06:14:07.640Z,25
2016-04-28T06:15:07.634Z,25
2016-04-28T06:16:07.624Z,25
2016-04-28T06:17:07.629Z,25
2016-04-28T06:18:07.586Z,25
2016-04-28T06:19:07.591Z,25
2016-04-28T06:20:07.549Z,25
2016-04-28T06:21:07.538Z,25
2016-04-28T06:22:06.761Z,25
2016-04-28T06:23:07.514Z,30
2016-04-28T06:24:07.470Z,30
2016-04-28T06:25:07.474Z,30
2016-04-28T06:26:07.446Z,30
2016-04-28T06:27:07.886Z,30
2016-04-28T06:28:07.437Z,30
2016-04-28T06:29:07.408Z,30
2016-04-28T06:30:07.396Z,30
2016-04-28T06:31:07.368Z,35
2016-04-28T06:32:07.338Z,35
2016-04-28T06:33:07.342Z,35
2016-04-28T06:34:07.313Z,35
2016-04-28T06:35:07.301Z,35
2016-04-28T06:36:07.304Z,35
2016-04-28T06:37:07.259Z,35
2016-04-28T06:38:07.245Z,35
2016-04-28T06:39:07.232Z,35
2016-04-28T06:40:07.235Z,40
2016-04-28T06:41:07.207Z,40
2016-04-28T06:42:07.240Z,40
2016-04-28T06:43:07.165Z,40
2016-04-28T06:44:07.153Z,40
2016-04-28T06:45:07.139Z,40
2016-04-28T06:46:07.126Z,45
2016-04-28T06:47:06.348Z,50
2016-04-28T06:48:07.070Z,50
2016-04-28T06:49:07.072Z,55
2016-04-28T06:50:07.059Z,60
2016-04-28T06:51:06.874Z,60
2016-04-28T06:52:07.034Z,60
2016-04-28T06:53:06.989Z,70
2016-04-28T06:54:06.961Z,70
2016-04-28T06:55:06.963Z,70
2016-04-28T06:56:06.935Z,70
2016-04-28T06:57:07.985Z,70
2016-04-28T06:58:06.908Z,70
2016-04-28T06:59:06.724Z,70
2016-04-28T07:00:06.882Z,65
2016-04-28T07:01:06.870Z,65
2016-04-28T07:02:06.827Z,60
2016-04-28T07:03:06.829Z,60
2016-04-28T07:04:06.799Z,65
2016-04-28T07:05:06.788Z,70
2016-04-28T07:06:06.774Z,70
2016-04-28T07:07:06.761Z,70
2016-04-28T07:08:06.732Z,75
2016-04-28T07:09:06.720Z,75
2016-04-28T07:10:06.706Z,75
2016-04-28T07:11:06.679Z,75
2016-04-28T07:12:09.603Z,75
2016-04-28T07:13:10.887Z,75
2016-04-28T07:14:06.624Z,80
2016-04-28T07:15:06.595Z,75
2016-04-28T07:16:06.582Z,80
2016-04-28T07:17:06.584Z,85
2016-04-28T07:18:06.572Z,90
2016-04-28T07:19:06.544Z,85
2016-04-28T07:20:06.530Z,80
2016-04-28T07:21:06.502Z,80
2016-04-28T07:22:06.505Z,65
2016-04-28T07:23:06.493Z,60
2016-04-28T07:24:06.449Z,65
2016-04-28T07:25:06.436Z,75
2016-04-28T07:26:06.439Z,70
2016-04-28T07:27:06.942Z,65
2016-04-28T07:28:07.006Z,65
2016-04-28T07:29:06.383Z,65
2016-04-28T07:30:06.355Z,60
2016-04-28T07:31:06.358Z,65
2016-04-28T07:32:06.345Z,70
2016-04-28T07:33:06.301Z,75
2016-04-28T07:34:06.304Z,80
2016-04-28T07:35:06.275Z,70
2016-04-28T07:36:06.262Z,70
2016-04-28T07:37:06.249Z,70
2016-04-28T07:38:06.221Z,65
2016-04-28T07:39:06.223Z,70
2016-04-28T07:40:06.194Z,70
2016-04-28T07:41:06.166Z,65
2016-04-28T07:42:07.122Z,75
2016-04-28T07:43:07.390Z,80
2016-04-28T07:44:06.143Z,90
2016-04-28T07:45:06.583Z,90
2016-04-28T07:46:06.071Z,80
2016-04-28T07:47:06.074Z,85
2016-04-28T07:48:06.060Z,90
2016-04-28T07:49:06.046Z,85
2016-04-28T07:50:06.018Z,85
2016-04-28T07:51:06.021Z,95
2016-04-28T07:52:05.992Z,100
2016-04-28T07:53:05.948Z,105
2016-04-28T07:54:05.951Z,100
2016-04-28T07:55:06.063Z,95
2016-04-28T07:56:05.973Z,90
2016-04-28T07:57:06.523Z,85
2016-04-28T07:58:07.821Z,85
2016-04-28T07:59:05.887Z,90
2016-04-28T08:00:05.858Z,90
2016-04-28T08:01:05.845Z,95
2016-04-28T08:02:05.817Z,95
2016-04-28T08:03:06.225Z,100
2016-04-28T08:04:06.494Z,105
2016-04-28T08:05:05.933Z,100
2016-04-28T08:06:05.546Z,100
2016-04-28T08:07:05.377Z,120
2016-04-28T08:08:05.563Z,145
2016-04-28T08:09:05.362Z,155
2016-04-28T08:10:05.693Z,145
2016-04-28T08:11:05.649Z,140
2016-04-28T08:12:08.854Z,125
2016-04-28T08:13:06.982Z,120
2016-04-28T08:14:05.594Z,115
2016-04-28T08:15:05.582Z,115
2016-04-28T08:16:05.428Z,120
2016-04-28T08:17:05.540Z,125
2016-04-28T08:18:05.528Z,125
2016-04-28T08:19:05.562Z,125
2016-04-28T08:20:05.486Z,115
2016-04-28T08:21:05.472Z,105
2016-04-28T08:22:05.475Z,105
2016-04-28T08:23:05.463Z,130
2016-04-28T08:24:05.434Z,140
2016-04-28T08:25:05.421Z,155
2016-04-28T08:26:05.408Z,150
2016-04-28T08:27:06.083Z,140
2016-04-28T08:28:05.273Z,140
2016-04-28T08:29:05.370Z,130
2016-04-28T08:30:05.341Z,115
2016-04-28T08:31:05.297Z,110
2016-04-28T08:32:05.299Z,110
2016-04-28T08:33:05.286Z,105
2016-04-28T08:34:05.274Z,105
2016-04-28T08:35:05.276Z,105
2016-04-28T08:36:05.263Z,105
2016-04-28T08:37:05.204Z,105
2016-04-28T08:38:05.190Z,105
2016-04-28T08:39:05.193Z,100
2016-04-28T08:40:05.195Z,105
2016-04-28T08:41:05.168Z,105
2016-04-28T08:42:08.061Z,95
2016-04-28T08:43:07.204Z,100
2016-04-28T08:44:05.098Z,95
2016-04-28T08:45:05.084Z,105
2016-04-28T08:46:05.103Z,100
2016-04-28T08:47:05.059Z,100
2016-04-28T08:48:05.076Z,100
2016-04-28T08:49:05.017Z,100
2016-04-28T08:50:05.004Z,85
2016-04-28T08:51:04.851Z,85
2016-04-28T08:52:04.962Z,85
2016-04-28T08:53:05.012Z,85
2016-04-28T08:54:04.936Z,100
2016-04-28T08:55:04.924Z,100
2016-04-28T08:56:04.911Z,105
2016-04-28T08:57:05.117Z,100
2016-04-28T08:58:04.775Z,105
2016-04-28T08:59:04.872Z,105
2016-04-28T09:00:04.827Z,105
2016-04-28T09:01:08.330Z,105
2016-04-28T09:02:04.818Z,105
2016-04-28T09:03:04.852Z,110
2016-04-28T09:04:04.777Z,110
2016-04-28T09:05:04.779Z,110
2016-04-28T09:06:04.750Z,110
2016-04-28T09:07:04.722Z,110
2016-04-28T09:08:04.724Z,110
2016-04-28T09:09:04.696Z,110
2016-04-28T09:10:04.667Z,110
2016-04-28T09:11:04.717Z,110
2016-04-28T09:12:05.032Z,110
2016-04-28T09:13:09.707Z,110
2016-04-28T09:14:04.663Z,110
2016-04-28T09:15:04.571Z,110
2016-04-28T09:16:04.590Z,110
2016-04-28T09:17:04.592Z,115
2016-04-28T09:18:04.673Z,115
2016-04-28T09:19:04.629Z,115
2016-04-28T09:20:04.569Z,115
2016-04-28T09:21:04.509Z,115
2016-04-28T09:22:05.622Z,115
2016-04-28T09:23:04.467Z,120
2016-04-28T09:24:04.486Z,120
2016-04-28T09:25:04.426Z,120
2016-04-28T09:26:04.414Z,125
2016-04-28T09:27:08.916Z,125
2016-04-28T09:28:06.622Z,125
2016-04-28T09:29:07.655Z,125
2016-04-28T09:30:04.377Z,125
2016-04-28T09:31:04.316Z,130
2016-04-28T09:32:04.366Z,135
2016-04-28T09:33:04.308Z,155
2016-04-28T09:34:04.294Z,165
2016-04-28T09:35:05.702Z,150
2016-04-28T09:36:04.268Z,160
2016-04-28T09:37:04.599Z,170
2016-04-28T09:38:04.227Z,160
2016-04-28T09:39:04.213Z,165
2016-04-28T09:40:04.170Z,155
2016-04-28T09:41:04.172Z,145
2016-04-28T09:42:05.456Z,140
2016-04-28T09:43:04.757Z,145
2016-04-28T09:44:04.149Z,145
2016-04-28T09:45:04.137Z,110
2016-04-28T09:46:03.936Z,120
2016-04-28T09:47:04.829Z,125
2016-04-28T09:48:04.034Z,125
2016-04-28T09:49:04.069Z,135
2016-04-28T09:50:04.040Z,155
2016-04-28T09:51:03.996Z,160
2016-04-28T09:52:03.998Z,160
2016-04-28T09:53:03.767Z,160
2016-04-28T09:54:03.958Z,160
2016-04-28T09:55:03.960Z,170
2016-04-28T09:56:03.963Z,170
2016-04-28T09:57:03.527Z,180
2016-04-28T09:58:03.921Z,170
2016-04-28T09:59:03.971Z,205
2016-04-28T10:00:03.849Z,240
2016-04-28T10:01:03.852Z,260
2016-04-28T10:02:03.885Z,245
2016-04-28T10:03:03.825Z,220
2016-04-28T10:04:03.781Z,205
2016-04-28T10:05:03.799Z,185
2016-04-28T10:06:03.630Z,155
2016-04-28T10:07:03.789Z,175
2016-04-28T10:08:03.714Z,175
2016-04-28T10:09:03.717Z,185
2016-04-28T10:10:03.704Z,185
2016-04-28T10:11:03.707Z,200
2016-04-28T10:12:06.772Z,195
2016-04-28T10:13:03.320Z,190
2016-04-28T10:14:03.667Z,195
2016-04-28T10:15:03.655Z,205
2016-04-28T10:16:03.610Z,210
2016-04-28T10:17:03.581Z,210
2016-04-28T10:18:03.584Z,205
2016-04-28T10:19:03.556Z,200
2016-04-28T10:20:03.542Z,210
2016-04-28T10:21:03.546Z,210
2016-04-28T10:22:03.501Z,215
2016-04-28T10:23:05.114Z,225
2016-04-28T10:24:03.506Z,235
2016-04-28T10:25:03.495Z,245
2016-04-28T10:26:03.512Z,195
2016-04-28T10:27:04.062Z,155
2016-04-28T10:28:03.299Z,145
2016-04-28T10:29:03.411Z,205
2016-04-28T10:30:03.398Z,245
2016-04-28T10:31:03.385Z,260
2016-04-28T10:32:03.419Z,260
2016-04-28T10:33:03.375Z,270
2016-04-28T10:34:03.393Z,280
2016-04-28T10:35:03.364Z,280
2016-04-28T10:36:03.321Z,295
2016-04-28T10:37:03.324Z,300
2016-04-28T10:38:03.280Z,315
2016-04-28T10:39:03.328Z,345
2016-04-28T10:40:03.268Z,350
2016-04-28T10:41:03.255Z,380
2016-04-28T10:42:04.321Z,375
2016-04-28T10:43:02.964Z,400
2016-04-28T10:44:03.201Z,455
2016-04-28T10:45:03.173Z,400
2016-04-28T10:46:03.176Z,385
2016-04-28T10:47:03.194Z,395
2016-04-28T10:48:02.993Z,340
2016-04-28T10:49:03.168Z,300
2016-04-28T10:50:03.124Z,275
2016-04-28T10:51:03.126Z,290
2016-04-28T10:52:03.082Z,295
2016-04-28T10:53:03.053Z,315
2016-04-28T10:54:03.087Z,385
2016-04-28T10:55:03.043Z,375
2016-04-28T10:56:03.062Z,365
2016-04-28T10:57:03.189Z,405
2016-04-28T10:58:02.958Z,370
2016-04-28T10:59:03.039Z,395
2016-04-28T11:00:02.994Z,410
2016-04-28T11:01:02.966Z,430
2016-04-28T11:02:02.953Z,430
2016-04-28T11:03:02.940Z,415
2016-04-28T11:04:02.927Z,395
2016-04-28T11:05:02.945Z,620
2016-04-28T11:06:02.901Z,1705
2016-04-28T11:07:02.904Z,2075
2016-04-28T11:08:02.907Z,460
2016-04-28T11:09:02.893Z,2030
2016-04-28T11:10:02.865Z,1495
2016-04-28T11:11:02.852Z,2400
2016-04-28T11:12:03.214Z,2370
2016-04-28T11:13:03.388Z,2365
2016-04-28T11:14:02.829Z,2350
2016-04-28T11:15:02.816Z,745
2016-04-28T11:16:02.818Z,800
2016-04-28T11:17:02.790Z,2345
2016-04-28T11:18:02.824Z,2375
2016-04-28T11:19:02.779Z,1660
2016-04-28T11:20:02.798Z,530
2016-04-28T11:21:02.778Z,1050
2016-04-28T11:22:02.814Z,295
2016-04-28T11:23:02.785Z,1475
2016-04-28T11:24:02.756Z,2400
2016-04-28T11:25:02.790Z,2125
2016-04-28T11:26:02.761Z,2020
2016-04-28T11:27:03.280Z,2190
2016-04-28T11:28:03.970Z,2225
2016-04-28T11:29:02.722Z,2255
2016-04-28T11:30:03.413Z,2325
2016-04-28T11:31:02.727Z,2305
2016-04-28T11:32:02.903Z,2255
2016-04-28T11:33:02.719Z,2005
2016-04-28T11:34:02.721Z,2065
2016-04-28T11:35:03.066Z,510
2016-04-28T11:36:02.710Z,2435
2016-04-28T11:37:02.712Z,2375
2016-04-28T11:38:02.746Z,2385
2016-04-28T11:39:02.687Z,2400
2016-04-28T11:40:02.690Z,2420
2016-04-28T11:41:02.708Z,2435
2016-04-28T11:42:03.820Z,2420
2016-04-28T11:43:03.245Z,2405
2016-04-28T11:44:02.685Z,2490
2016-04-28T11:45:02.688Z,2475
2016-04-28T11:46:02.690Z,2595
2016-04-28T11:47:02.568Z,2355
2016-04-28T11:48:02.681Z,2650
2016-04-28T11:49:02.792Z,2540
2016-04-28T11:50:02.686Z,2445
2016-04-28T11:51:02.673Z,2430
2016-04-28T11:52:02.676Z,2510
2016-04-28T11:53:02.694Z,2530
2016-04-28T11:54:02.680Z,2475
2016-04-28T11:55:02.667Z,2510
2016-04-28T11:56:02.670Z,2480
2016-04-28T11:57:02.564Z,2350
2016-04-28T11:58:02.239Z,830
2016-04-28T11:59:02.772Z,680
2016-04-28T12:00:02.666Z,755
2016-04-28T12:01:02.669Z,960
2016-04-28T12:02:02.686Z,2560
2016-04-28T12:03:02.689Z,2565
2016-04-28T12:05:17.569Z,2140
2016-04-28T12:06:02.682Z,2660
2016-04-28T12:07:02.903Z,2575
2016-04-28T12:08:02.890Z,2510
2016-04-28T12:09:02.705Z,2580
2016-04-28T12:10:02.660Z,2475
2016-04-28T12:11:02.742Z,2360
2016-04-28T12:12:03.479Z,2365
2016-04-28T12:13:02.044Z,2520
2016-04-28T12:14:02.656Z,2825
2016-04-28T12:15:02.628Z,3325
2016-04-28T12:16:02.646Z,3395
2016-04-28T12:17:02.634Z,3375
2016-04-28T12:18:02.651Z,3325
2016-04-28T12:19:02.623Z,2740
2016-04-28T12:20:02.642Z,2265
2016-04-28T12:21:02.613Z,2050
2016-04-28T12:22:02.662Z,2220
2016-04-28T12:23:02.634Z,2555
2016-04-28T12:24:02.652Z,2735
2016-04-28T12:25:02.639Z,2715
2016-04-28T12:26:02.641Z,2685
2016-04-28T12:27:02.628Z,1700
2016-04-28T12:28:03.303Z,2715
2016-04-28T12:29:02.650Z,2580
2016-04-28T12:30:02.684Z,2635
2016-04-28T12:31:02.655Z,2595
2016-04-28T12:32:02.642Z,2600
2016-04-28T12:33:02.661Z,2670
2016-04-28T12:34:02.648Z,2550
2016-04-28T12:35:02.681Z,2490
2016-04-28T12:36:02.652Z,2455
2016-04-28T12:37:02.827Z,2520
2016-04-28T12:38:02.690Z,2565
2016-04-28T12:39:02.677Z,2505
2016-04-28T12:40:02.664Z,2545
2016-04-28T12:41:02.666Z,2570
2016-04-28T12:42:03.169Z,2550
2016-04-28T12:43:09.188Z,2420
2016-04-28T12:44:10.113Z,2535
2016-04-28T12:45:07.286Z,2510
2016-04-28T12:46:02.679Z,2510
2016-04-28T12:47:04.792Z,2575
2016-04-28T12:48:02.685Z,2640
2016-04-28T12:49:02.687Z,2575
2016-04-28T12:50:02.690Z,2575
2016-04-28T12:51:02.693Z,2585
2016-04-28T12:52:02.696Z,2595
2016-04-28T12:53:02.776Z,2590
2016-04-28T12:54:02.701Z,2500
2016-04-28T12:55:02.986Z,2480
2016-04-28T12:56:02.769Z,2495
2016-04-28T12:57:02.959Z,2440
2016-04-28T12:58:06.102Z,2305
2016-04-28T12:59:02.714Z,2320
2016-04-28T13:00:02.702Z,2605
2016-04-28T13:01:02.752Z,2560
2016-04-28T13:02:02.708Z,2425
2016-04-28T13:03:02.710Z,2355
2016-04-28T13:04:02.728Z,2515
2016-04-28T13:05:02.731Z,2520
2016-04-28T13:06:02.702Z,2420
2016-04-28T13:07:02.689Z,2295
2016-04-28T13:08:02.692Z,2470
2016-04-28T13:09:02.711Z,2515
2016-04-28T13:10:02.729Z,2335
2016-04-28T13:11:02.607Z,2280
2016-04-28T13:12:03.485Z,2350
2016-04-28T13:13:03.205Z,2355
2016-04-28T13:14:02.708Z,2375
2016-04-28T13:15:02.695Z,2480
2016-04-28T13:16:02.698Z,2450
2016-04-28T13:17:02.560Z,2375
2016-04-28T13:18:02.704Z,2425
2016-04-28T13:19:02.721Z,2445
2016-04-28T13:20:02.787Z,2435
2016-04-28T13:21:02.711Z,2430
2016-04-28T13:22:02.809Z,2390
2016-04-28T13:23:02.607Z,2365
2016-04-28T13:24:02.782Z,2380
2016-04-28T13:25:02.831Z,2280
2016-04-28T13:26:02.740Z,2165
2016-04-28T13:27:02.712Z,2200
2016-04-28T13:28:02.699Z,2235
2016-04-28T13:29:02.749Z,2060
2016-04-28T13:30:02.814Z,2320
2016-04-28T13:31:02.692Z,2285
2016-04-28T13:32:02.819Z,2160
2016-04-28T13:33:02.869Z,2220
2016-04-28T13:34:02.824Z,2200
2016-04-28T13:35:02.687Z,2100
2016-04-28T13:36:02.689Z,2180
2016-04-28T13:37:02.708Z,2165
2016-04-28T13:38:02.710Z,2160
2016-04-28T13:39:02.697Z,2295
2016-04-28T13:40:02.872Z,2290
2016-04-28T13:41:02.719Z,2135
2016-04-28T13:42:02.705Z,2210
2016-04-28T13:43:03.349Z,2170
2016-04-28T13:44:02.757Z,2020
2016-04-28T13:45:02.791Z,2070
2016-04-28T13:46:02.763Z,2245
2016-04-28T13:47:02.735Z,2140
2016-04-28T13:48:02.784Z,2105
2016-04-28T13:49:02.724Z,2175
2016-04-28T13:50:02.726Z,2310
2016-04-28T13:51:02.682Z,2285
2016-04-28T13:52:02.826Z,2255
2016-04-28T13:53:02.828Z,2215
2016-04-28T13:54:03.004Z,2130
2016-04-28T13:55:02.818Z,2300
2016-04-28T13:56:02.759Z,2160
2016-04-28T13:57:02.714Z,2160
2016-04-28T13:58:04.562Z,2115
2016-04-28T13:59:02.814Z,2060
2016-04-28T14:00:02.723Z,2130
2016-04-28T14:01:02.710Z,2115
2016-04-28T14:02:02.774Z,2095
2016-04-28T14:03:02.699Z,2130
2016-04-28T14:04:02.702Z,2105
2016-04-28T14:05:02.674Z,2035
2016-04-28T14:06:03.614Z,2230
2016-04-28T14:07:03.366Z,2155
2016-04-28T14:08:02.760Z,2070
2016-04-28T14:09:02.716Z,2160
2016-04-28T14:10:02.734Z,2070